createdAt,value
2023-03-17T00:02:01.147Z,6.63
2023-03-17T00:04:29.694Z,6.82
2023-03-17T00:06:58.043Z,6.76
2023-03-17T00:09:26.709Z,6.81
2023-03-17T00:11:55.405Z,6.88
2023-03-17T00:14:23.927Z,6.74
2023-03-17T00:16:53.735Z,6.77
2023-03-17T00:19:30.055Z,6.73
2023-03-17T00:21:59.173Z,6.64
2023-03-17T00:24:27.700Z,6.54
2023-03-17T00:26:56.179Z,6.48
2023-03-17T00:29:25.608Z,6.48
2023-03-17T00:31:54.780Z,6.56
2023-03-17T00:34:24.694Z,6.45
2023-03-17T00:36:53.609Z,6.39
2023-03-17T00:39:22.003Z,6.33
2023-03-17T00:41:50.463Z,6.34
2023-03-17T00:44:18.916Z,6.28
2023-03-17T00:46:47.413Z,6.24
2023-03-17T00:51:47.944Z,6.21
2023-03-17T00:54:17.263Z,6.17
2023-03-17T00:56:46.896Z,6.11
2023-03-17T00:59:22.015Z,6.07
2023-03-17T01:01:51.362Z,6.00
2023-03-17T01:04:20.177Z,5.92
2023-03-17T01:06:52.284Z,5.91
2023-03-17T01:09:25.934Z,5.88
2023-03-17T01:11:55.234Z,5.83
2023-03-17T01:14:24.964Z,5.79
2023-03-17T01:16:55.300Z,5.76
2023-03-17T01:19:23.843Z,5.73
2023-03-17T01:21:53.659Z,5.68
2023-03-17T01:24:22.065Z,5.62
2023-03-17T01:26:50.971Z,5.58
2023-03-17T01:29:19.390Z,5.51
2023-03-17T01:31:47.907Z,5.54
2023-03-17T01:34:16.666Z,5.53
2023-03-17T01:36:45.178Z,5.49
2023-03-17T01:39:15.400Z,5.39
2023-03-17T01:41:45.722Z,5.32
2023-03-17T01:44:18.526Z,5.33
2023-03-17T01:46:47.686Z,5.28
2023-03-17T01:49:21.217Z,5.23
2023-03-17T01:51:57.706Z,5.34
2023-03-17T01:54:31.944Z,5.30
2023-03-17T01:57:05.649Z,5.35
2023-03-17T01:59:39.842Z,5.42
2023-03-17T02:02:12.450Z,5.39
2023-03-17T02:04:41.146Z,5.34
2023-03-17T02:07:10.216Z,5.28
2023-03-17T02:09:40.278Z,5.23
2023-03-17T02:12:12.034Z,5.18
2023-03-17T02:14:41.665Z,5.17
2023-03-17T02:17:10.320Z,5.14
2023-03-17T02:19:39.051Z,5.08
2023-03-17T02:22:09.399Z,5.04
2023-03-17T02:24:41.834Z,5.00
2023-03-17T02:27:14.846Z,4.96
2023-03-17T02:29:46.473Z,4.91
2023-03-17T02:32:18.400Z,4.90
2023-03-17T02:34:47.689Z,4.85
2023-03-17T02:37:18.907Z,4.76
2023-03-17T02:39:47.779Z,4.69
2023-03-17T02:42:16.261Z,4.68
2023-03-17T02:44:45.102Z,4.65
2023-03-17T02:47:14.491Z,4.60
2023-03-17T02:49:44.122Z,4.55
2023-03-17T02:52:13.424Z,4.51
2023-03-17T02:54:43.234Z,4.49
2023-03-17T02:57:11.815Z,4.44
2023-03-17T02:59:40.513Z,4.41
2023-03-17T03:02:09.167Z,4.42
2023-03-17T03:04:37.683Z,4.40
2023-03-17T03:07:06.606Z,4.37
2023-03-17T03:09:35.362Z,4.34
2023-03-17T03:12:06.192Z,4.26
2023-03-17T03:14:34.648Z,4.25
2023-03-17T03:17:03.037Z,4.20
2023-03-17T03:19:31.528Z,4.21
2023-03-17T03:21:59.945Z,4.20
2023-03-17T03:24:28.482Z,4.20
2023-03-17T03:26:56.865Z,4.15
2023-03-17T03:29:27.195Z,4.11
2023-03-17T03:31:55.609Z,4.10
2023-03-17T03:34:24.019Z,4.14
2023-03-17T03:36:52.494Z,4.11
2023-03-17T03:39:20.729Z,4.09
2023-03-17T03:41:49.096Z,4.06
2023-03-17T03:44:17.483Z,4.04
2023-03-17T03:46:47.364Z,4.04
2023-03-17T03:49:15.834Z,4.05
2023-03-17T03:51:44.266Z,4.03
2023-03-17T03:54:12.573Z,4.04
2023-03-17T03:56:43.624Z,4.06
2023-03-17T03:59:12.028Z,4.06
2023-03-17T04:01:41.777Z,4.00
2023-03-17T04:04:11.737Z,3.97
2023-03-17T04:06:40.272Z,3.97
2023-03-17T04:09:10.880Z,3.96
2023-03-17T04:11:39.279Z,3.94
2023-03-17T04:14:07.797Z,3.94
2023-03-17T04:16:36.168Z,3.90
2023-03-17T04:19:04.681Z,3.89
2023-03-17T04:21:34.495Z,3.91
2023-03-17T04:24:02.923Z,3.87
2023-03-17T04:26:31.659Z,3.85
2023-03-17T04:29:00.136Z,3.85
2023-03-17T04:31:28.530Z,3.83
2023-03-17T04:33:57.010Z,3.79
2023-03-17T04:36:25.786Z,3.73
2023-03-17T04:38:55.773Z,3.72
2023-03-17T04:41:24.242Z,3.65
2023-03-17T04:43:52.564Z,3.62
2023-03-17T04:46:21.055Z,3.60
2023-03-17T04:48:49.295Z,3.55
2023-03-17T04:51:17.838Z,3.51
2023-03-17T04:53:46.455Z,3.50
2023-03-17T04:56:16.407Z,3.51
2023-03-17T04:58:44.789Z,3.49
2023-03-17T05:01:13.488Z,3.47
2023-03-17T05:03:41.956Z,3.46
2023-03-17T05:06:10.405Z,3.50
2023-03-17T05:08:38.824Z,3.42
2023-03-17T05:11:10.853Z,3.42
2023-03-17T05:13:42.142Z,3.38
2023-03-17T05:16:11.825Z,3.37
2023-03-17T05:18:41.885Z,3.36
2023-03-17T05:21:10.789Z,3.37
2023-03-17T05:23:40.521Z,3.35
2023-03-17T05:26:09.403Z,3.34
2023-03-17T05:28:37.773Z,3.35
2023-03-17T05:31:10.826Z,3.33
2023-03-17T05:33:39.707Z,3.35
2023-03-17T05:36:08.726Z,3.36
2023-03-17T05:38:37.234Z,3.40
2023-03-17T05:41:05.986Z,3.36
2023-03-17T05:43:34.440Z,3.31
2023-03-17T05:46:03.974Z,3.26
2023-03-17T05:48:33.872Z,3.22
2023-03-17T05:51:02.609Z,3.19
2023-03-17T05:53:31.401Z,3.20
2023-03-17T05:55:59.781Z,3.23
2023-03-17T05:58:28.107Z,3.21
2023-03-17T06:00:57.164Z,3.18
2023-03-17T06:03:25.592Z,3.25
2023-03-17T06:05:55.459Z,3.21
2023-03-17T06:08:24.014Z,3.19
2023-03-17T06:10:52.864Z,3.19
2023-03-17T06:13:21.399Z,3.19
2023-03-17T06:15:52.737Z,3.24
2023-03-17T06:18:21.151Z,3.23
2023-03-17T06:20:49.657Z,3.21
2023-03-17T06:23:19.444Z,3.21
2023-03-17T06:25:48.522Z,3.21
2023-03-17T06:28:17.062Z,3.21
2023-03-17T06:30:45.803Z,3.20
2023-03-17T06:33:14.256Z,3.21
2023-03-17T06:35:42.984Z,3.21
2023-03-17T06:38:11.488Z,3.22
2023-03-17T06:40:41.609Z,3.25
2023-03-17T06:43:10.403Z,3.24
2023-03-17T06:45:38.814Z,3.27
2023-03-17T06:48:08.020Z,3.29
2023-03-17T06:50:36.808Z,3.32
2023-03-17T06:53:06.293Z,3.46
2023-03-17T06:55:35.029Z,3.46
2023-03-17T06:58:05.263Z,3.48
2023-03-17T07:00:33.789Z,3.52
2023-03-17T07:03:03.196Z,3.63
2023-03-17T07:05:32.025Z,3.67
2023-03-17T07:08:01.210Z,3.74
2023-03-17T07:10:30.539Z,3.80
2023-03-17T07:12:59.679Z,3.89
2023-03-17T07:15:32.112Z,3.99
2023-03-17T07:18:00.470Z,4.11
2023-03-17T07:20:29.035Z,4.19
2023-03-17T07:22:58.120Z,4.28
2023-03-17T07:25:26.609Z,4.38
2023-03-17T07:27:55.060Z,4.49
2023-03-17T07:30:23.581Z,4.73
2023-03-17T07:32:54.061Z,4.95
2023-03-17T07:35:22.843Z,5.06
2023-03-17T07:37:51.416Z,5.23
2023-03-17T07:40:20.198Z,5.55
2023-03-17T07:42:48.633Z,5.72
2023-03-17T07:45:17.469Z,5.85
2023-03-17T07:47:46.481Z,6.00
2023-03-17T07:50:17.048Z,6.19
2023-03-17T07:52:45.757Z,6.35
2023-03-17T07:55:14.424Z,6.62
2023-03-17T07:57:43.240Z,6.90
2023-03-17T08:00:13.866Z,6.94
2023-03-17T08:02:42.579Z,7.11
2023-03-17T08:05:11.760Z,7.29
2023-03-17T08:07:41.810Z,7.55
2023-03-17T08:10:13.380Z,7.68
2023-03-17T08:12:42.680Z,7.78
2023-03-17T08:15:12.339Z,7.91
2023-03-17T08:17:40.878Z,8.06
2023-03-17T08:20:11.604Z,8.26
2023-03-17T08:22:41.745Z,8.54
2023-03-17T08:25:11.811Z,8.63
2023-03-17T08:27:40.744Z,8.77
2023-03-17T08:30:10.716Z,8.84
2023-03-17T08:32:39.254Z,8.88
2023-03-17T08:35:08.306Z,9.07
2023-03-17T08:37:37.950Z,9.13
2023-03-17T08:40:10.137Z,9.37
2023-03-17T08:42:38.815Z,9.48
2023-03-17T08:45:08.158Z,9.62
2023-03-17T08:47:37.448Z,9.79
2023-03-17T08:50:11.491Z,9.89
2023-03-17T08:52:39.917Z,10.01
2023-03-17T08:55:11.015Z,10.12
2023-03-17T08:57:39.606Z,10.21
2023-03-17T09:00:11.380Z,10.23
2023-03-17T09:02:40.411Z,10.24
2023-03-17T09:05:09.560Z,10.35
2023-03-17T09:07:38.128Z,10.45
2023-03-17T09:10:08.810Z,10.62
2023-03-17T09:12:39.685Z,10.72
2023-03-17T09:15:09.192Z,10.85
2023-03-17T09:17:37.705Z,10.92
2023-03-17T09:20:07.721Z,11.06
2023-03-17T09:22:36.230Z,11.22
2023-03-17T09:25:05.195Z,11.32
2023-03-17T09:27:33.728Z,11.27
2023-03-17T09:30:03.822Z,11.48
2023-03-17T09:32:32.575Z,11.58
2023-03-17T09:35:01.084Z,11.49
2023-03-17T09:37:29.537Z,11.58
2023-03-17T09:39:59.398Z,11.45
2023-03-17T09:42:43.458Z,11.57
2023-03-17T09:45:24.309Z,11.72
2023-03-17T09:48:30.558Z,12.05
2023-03-17T09:51:03.068Z,12.08
2023-03-17T09:53:36.066Z,12.28
2023-03-17T09:56:09.097Z,12.47
2023-03-17T09:58:39.100Z,12.55
2023-03-17T10:01:12.933Z,12.58
2023-03-17T10:03:41.619Z,12.69
2023-03-17T10:06:26.574Z,12.67
2023-03-17T10:09:00.989Z,12.76
2023-03-17T10:11:39.726Z,12.92
2023-03-17T10:14:19.606Z,13.12
2023-03-17T10:16:55.717Z,13.26
2023-03-17T10:19:30.722Z,13.28
2023-03-17T10:22:02.806Z,13.22
2023-03-17T10:24:34.235Z,13.26
2023-03-17T10:27:07.411Z,13.38
2023-03-17T10:29:36.268Z,13.45
2023-03-17T10:32:06.582Z,13.73
2023-03-17T10:34:38.216Z,13.79
2023-03-17T10:37:08.839Z,14.12
2023-03-17T10:39:46.378Z,14.12
2023-03-17T10:42:23.035Z,14.07
2023-03-17T10:44:54.909Z,14.35
2023-03-17T10:47:32.845Z,14.44
2023-03-17T10:50:06.103Z,14.63
2023-03-17T10:52:41.839Z,14.73
2023-03-17T10:55:16.291Z,14.78
2023-03-17T10:57:53.871Z,14.90
2023-03-17T11:00:23.467Z,15.12
2023-03-17T11:02:58.566Z,15.34
2023-03-17T11:05:29.286Z,15.51
2023-03-17T11:08:10.566Z,15.64
2023-03-17T11:10:40.963Z,15.42
2023-03-17T11:13:10.465Z,15.64
2023-03-17T11:15:42.635Z,15.70
2023-03-17T11:18:19.646Z,15.47
2023-03-17T11:20:53.593Z,15.45
2023-03-17T11:23:47.347Z,15.75
2023-03-17T11:26:42.734Z,15.89
2023-03-17T11:29:24.014Z,15.60
2023-03-17T11:31:59.601Z,15.41
2023-03-17T11:34:41.837Z,15.71
2023-03-17T11:37:22.840Z,15.67
2023-03-17T11:39:59.984Z,15.76
2023-03-17T11:42:33.398Z,15.67
2023-03-17T11:45:25.288Z,15.93
2023-03-17T11:48:16.505Z,16.03
2023-03-17T11:50:56.794Z,15.95
2023-03-17T11:53:41.704Z,16.14
2023-03-17T11:56:17.037Z,16.34
2023-03-17T11:58:46.857Z,16.55
2023-03-17T12:01:21.613Z,17.08
2023-03-17T12:03:55.030Z,17.23
2023-03-17T12:06:30.850Z,17.69
2023-03-17T12:09:03.348Z,18.05
2023-03-17T12:11:37.092Z,18.16
2023-03-17T12:14:08.560Z,18.41
2023-03-17T12:16:41.973Z,18.35
2023-03-17T12:19:17.725Z,18.53
2023-03-17T12:21:53.155Z,18.88
2023-03-17T12:24:26.925Z,19.14
2023-03-17T12:26:59.637Z,19.35
2023-03-17T12:29:34.164Z,19.54
2023-03-17T12:32:08.379Z,19.53
2023-03-17T12:34:44.855Z,19.63
2023-03-17T12:37:17.658Z,19.75
2023-03-17T12:39:54.939Z,19.86
2023-03-17T12:42:47.181Z,19.93
2023-03-17T12:45:43.195Z,20.13
2023-03-17T12:48:45.270Z,19.65
2023-03-17T12:51:38.369Z,19.87
2023-03-17T12:54:15.558Z,20.09
2023-03-17T12:56:47.341Z,19.88
2023-03-17T12:59:19.745Z,20.05
2023-03-17T13:01:57.618Z,20.00
2023-03-17T13:04:28.412Z,19.53
2023-03-17T13:07:05.447Z,19.86
2023-03-17T13:09:45.711Z,19.71
2023-03-17T13:12:56.094Z,19.94
2023-03-17T13:15:53.055Z,19.82
2023-03-17T13:18:50.635Z,19.66
2023-03-17T13:21:23.964Z,19.59
2023-03-17T13:23:59.158Z,19.47
2023-03-17T13:26:58.225Z,19.58
2023-03-17T13:29:45.748Z,19.72
2023-03-17T13:32:38.717Z,19.98
2023-03-17T13:35:20.280Z,19.95
2023-03-17T13:38:07.480Z,19.87
2023-03-17T13:40:47.475Z,19.90
2023-03-17T13:43:41.878Z,19.97
2023-03-17T13:46:28.288Z,19.87
2023-03-17T13:48:58.268Z,19.83
2023-03-17T13:51:32.327Z,19.68
2023-03-17T13:54:11.646Z,19.62
2023-03-17T13:56:50.971Z,19.57
2023-03-17T13:59:22.288Z,19.61
2023-03-17T14:01:57.841Z,19.54
2023-03-17T14:04:29.526Z,19.52
2023-03-17T14:07:01.895Z,19.54
2023-03-17T14:09:38.189Z,19.27
2023-03-17T14:12:14.593Z,19.41
2023-03-17T14:14:53.926Z,19.52
2023-03-17T14:17:29.195Z,19.33
2023-03-17T14:20:09.358Z,19.16
2023-03-17T14:22:44.985Z,19.05
2023-03-17T14:25:19.005Z,19.02
2023-03-17T14:27:50.516Z,18.99
2023-03-17T14:30:23.592Z,18.91
2023-03-17T14:32:58.121Z,18.89
2023-03-17T14:35:30.768Z,18.83
2023-03-17T14:37:59.145Z,18.79
2023-03-17T14:40:29.701Z,18.70
2023-03-17T14:42:58.254Z,18.71
2023-03-17T14:45:43.178Z,18.59
2023-03-17T14:48:14.710Z,18.44
2023-03-17T14:50:53.131Z,18.48
2023-03-17T14:53:24.242Z,18.44
2023-03-17T14:55:54.127Z,18.51
2023-03-17T14:58:26.296Z,18.31
2023-03-17T15:01:03.303Z,18.41
2023-03-17T15:03:34.431Z,18.36
2023-03-17T15:06:21.058Z,18.27
2023-03-17T15:08:49.743Z,17.96
2023-03-17T15:11:24.941Z,17.95
2023-03-17T15:13:58.313Z,17.65
2023-03-17T15:16:30.810Z,17.73
2023-03-17T15:19:07.780Z,17.55
2023-03-17T15:21:40.011Z,17.47
2023-03-17T15:24:24.126Z,17.51
2023-03-17T15:26:59.594Z,17.50
2023-03-17T15:29:28.369Z,17.45
2023-03-17T15:32:04.207Z,17.40
2023-03-17T15:34:32.934Z,17.43
2023-03-17T15:37:01.434Z,17.35
2023-03-17T15:39:30.016Z,17.42
2023-03-17T15:41:58.571Z,17.29
2023-03-17T15:44:27.179Z,17.27
2023-03-17T15:46:55.936Z,17.34
2023-03-17T15:49:27.419Z,17.21
2023-03-17T15:51:56.049Z,17.10
2023-03-17T15:54:24.400Z,17.07
2023-03-17T15:56:52.854Z,17.00
2023-03-17T15:59:21.512Z,17.02
2023-03-17T16:01:50.163Z,16.99
2023-03-17T16:04:19.215Z,16.84
2023-03-17T16:06:49.314Z,16.80
2023-03-17T16:09:18.549Z,16.77
2023-03-17T16:11:47.160Z,16.65
2023-03-17T16:14:15.645Z,16.57
2023-03-17T16:16:46.140Z,16.52
2023-03-17T16:19:20.529Z,16.61
2023-03-17T16:21:50.805Z,16.59
2023-03-17T16:24:21.820Z,16.65
2023-03-17T16:26:51.049Z,16.55
2023-03-17T16:29:21.460Z,16.59
2023-03-17T16:31:51.845Z,16.49
2023-03-17T16:34:22.255Z,16.41
2023-03-17T16:36:54.331Z,16.31
2023-03-17T16:39:24.768Z,16.29
2023-03-17T16:41:54.249Z,16.21
2023-03-17T16:44:23.584Z,16.13
2023-03-17T16:46:52.264Z,16.04
2023-03-17T16:49:23.817Z,16.04
2023-03-17T16:51:53.802Z,15.87
2023-03-17T16:54:22.470Z,15.90
2023-03-17T16:56:51.555Z,15.85
2023-03-17T16:59:21.694Z,15.80
2023-03-17T17:01:50.304Z,15.77
2023-03-17T17:04:18.848Z,15.57
2023-03-17T17:06:47.434Z,15.57
2023-03-17T17:09:17.605Z,15.45
2023-03-17T17:11:46.348Z,15.45
2023-03-17T17:14:14.858Z,15.43
2023-03-17T17:16:43.416Z,15.34
2023-03-17T17:19:16.832Z,15.31
2023-03-17T17:21:45.938Z,15.23
2023-03-17T17:24:16.282Z,15.10
2023-03-17T17:26:44.865Z,15.06
2023-03-17T17:29:13.600Z,15.04
2023-03-17T17:31:44.552Z,14.97
2023-03-17T17:34:13.213Z,14.90
2023-03-17T17:36:42.858Z,14.83
2023-03-17T17:39:11.991Z,14.72
2023-03-17T17:41:41.964Z,14.60
2023-03-17T17:44:10.631Z,14.68
2023-03-17T17:46:39.182Z,14.57
2023-03-17T17:49:07.915Z,14.54
2023-03-17T17:51:38.609Z,14.58
2023-03-17T17:54:07.803Z,14.55
2023-03-17T17:56:40.332Z,14.45
2023-03-17T17:59:11.225Z,14.51
2023-03-17T18:01:40.523Z,14.43
2023-03-17T18:04:09.945Z,14.46
2023-03-17T18:06:38.547Z,14.34
2023-03-17T18:09:07.067Z,14.27
2023-03-17T18:11:38.566Z,14.17
2023-03-17T18:14:08.003Z,14.14
2023-03-17T18:16:39.247Z,14.09
2023-03-17T18:19:10.087Z,14.06
2023-03-17T18:21:38.578Z,13.99
2023-03-17T18:24:07.664Z,13.92
2023-03-17T18:26:37.000Z,13.88
2023-03-17T18:29:05.557Z,13.79
2023-03-17T18:31:38.552Z,13.79
2023-03-17T18:34:12.731Z,13.73
2023-03-17T18:36:42.107Z,13.64
2023-03-17T18:39:10.542Z,13.57
2023-03-17T18:41:39.461Z,13.60
2023-03-17T18:44:10.195Z,13.61
2023-03-17T18:46:39.171Z,13.53
2023-03-17T18:49:09.372Z,13.35
2023-03-17T18:51:37.970Z,13.30
2023-03-17T18:54:06.900Z,13.31
2023-03-17T18:56:35.666Z,13.27
2023-03-17T18:59:04.189Z,13.30
2023-03-17T19:01:33.054Z,13.22
2023-03-17T19:04:01.977Z,13.18
2023-03-17T19:06:32.160Z,13.16
2023-03-17T19:09:00.959Z,12.97
2023-03-17T19:11:29.936Z,12.98
2023-03-17T19:13:58.671Z,12.85
2023-03-17T19:16:29.180Z,12.93
2023-03-17T19:18:57.881Z,12.84
2023-03-17T19:21:26.765Z,12.77
2023-03-17T19:24:00.755Z,12.71
2023-03-17T19:26:30.578Z,12.71
2023-03-17T19:28:59.075Z,12.70
2023-03-17T19:31:27.464Z,12.72
2023-03-17T19:33:56.762Z,12.70
2023-03-17T19:36:25.424Z,12.70
2023-03-17T19:38:54.010Z,12.67
2023-03-17T19:41:23.760Z,12.66
2023-03-17T19:43:52.239Z,12.67
2023-03-17T19:46:20.730Z,12.74
2023-03-17T19:48:49.189Z,12.72
2023-03-17T19:51:18.235Z,12.69
2023-03-17T19:53:46.878Z,12.70
2023-03-17T19:56:15.454Z,12.74
2023-03-17T19:58:45.806Z,12.73
2023-03-17T20:01:14.872Z,12.73
2023-03-17T20:03:45.964Z,12.72
2023-03-17T20:06:15.315Z,12.80
2023-03-17T20:08:44.125Z,12.82
2023-03-17T20:11:13.614Z,12.82
2023-03-17T20:13:42.188Z,12.82
2023-03-17T20:16:12.575Z,12.83
2023-03-17T20:18:41.114Z,12.88
2023-03-17T20:21:13.788Z,12.81
2023-03-17T20:23:42.497Z,12.75
2023-03-17T20:26:11.046Z,12.74
2023-03-17T20:28:39.903Z,12.74
2023-03-17T20:31:09.363Z,12.68
2023-03-17T20:33:39.554Z,12.72
2023-03-17T20:36:09.548Z,12.70
2023-03-17T20:38:39.147Z,12.62
2023-03-17T20:41:09.902Z,12.69
2023-03-17T20:43:39.278Z,12.59
2023-03-17T20:46:09.407Z,12.58
2023-03-17T20:48:39.516Z,12.57
2023-03-17T20:51:10.254Z,12.52
2023-03-17T20:53:39.011Z,12.53
2023-03-17T20:56:08.713Z,12.49
2023-03-17T20:58:37.244Z,12.45
2023-03-17T21:01:05.984Z,12.44
2023-03-17T21:03:34.599Z,12.46
2023-03-17T21:06:04.821Z,12.45
2023-03-17T21:08:34.045Z,12.50
2023-03-17T21:11:02.934Z,12.46
2023-03-17T21:13:32.426Z,12.40
2023-03-17T21:16:02.350Z,12.36
2023-03-17T21:18:31.908Z,12.35
2023-03-17T21:21:00.315Z,12.34
2023-03-17T21:23:30.197Z,12.33
2023-03-17T21:25:58.722Z,12.29
2023-03-17T21:28:27.524Z,12.27
2023-03-17T21:30:55.986Z,12.31
2023-03-17T21:33:24.959Z,12.28
2023-03-17T21:35:53.517Z,12.27
2023-03-17T21:38:22.182Z,12.24
2023-03-17T21:40:52.028Z,12.23
2023-03-17T21:43:20.506Z,12.22
2023-03-17T21:45:49.409Z,12.16
2023-03-17T21:48:18.510Z,12.16
2023-03-17T21:50:48.972Z,12.18
2023-03-17T21:53:17.505Z,12.20
2023-03-17T21:55:46.117Z,12.15
2023-03-17T21:58:16.024Z,12.14
2023-03-17T22:00:45.972Z,12.11
2023-03-17T22:03:14.895Z,12.09
2023-03-17T22:05:44.121Z,12.09
2023-03-17T22:08:13.169Z,12.05
2023-03-17T22:10:41.837Z,12.08
2023-03-17T22:13:10.245Z,12.08
2023-03-17T22:15:41.153Z,12.08
2023-03-17T22:18:09.632Z,12.07
2023-03-17T22:20:38.899Z,12.04
2023-03-17T22:23:07.641Z,12.02
2023-03-17T22:25:36.260Z,11.97
2023-03-17T22:28:04.830Z,11.96
2023-03-17T22:30:33.511Z,11.95
2023-03-17T22:33:03.686Z,11.96
2023-03-17T22:35:32.339Z,12.01
2023-03-17T22:38:00.754Z,11.96
2023-03-17T22:40:29.248Z,11.98
2023-03-17T22:42:58.305Z,11.95
2023-03-17T22:45:27.177Z,11.95
2023-03-17T22:47:56.693Z,11.96
2023-03-17T22:50:26.751Z,11.93
2023-03-17T22:52:55.320Z,11.93
2023-03-17T22:55:23.830Z,11.91
2023-03-17T22:57:52.384Z,11.92
2023-03-17T23:00:21.043Z,11.92
2023-03-17T23:02:49.542Z,11.92
2023-03-17T23:05:18.127Z,11.92
2023-03-17T23:07:51.780Z,11.96
2023-03-17T23:10:23.308Z,11.95
2023-03-17T23:12:52.774Z,11.93
2023-03-17T23:15:22.197Z,11.91
2023-03-17T23:17:50.907Z,11.89
2023-03-17T23:20:19.591Z,11.88
2023-03-17T23:22:49.503Z,11.84
2023-03-17T23:25:18.462Z,11.81
2023-03-17T23:27:48.158Z,11.78
2023-03-17T23:30:18.088Z,11.76
2023-03-17T23:32:47.009Z,11.75
2023-03-17T23:35:16.206Z,11.74
2023-03-17T23:37:44.837Z,11.70
2023-03-17T23:40:17.400Z,11.67
2023-03-17T23:42:46.134Z,11.64
2023-03-17T23:45:15.418Z,11.58
2023-03-17T23:47:44.625Z,11.57
2023-03-17T23:50:14.542Z,11.56
2023-03-17T23:52:43.963Z,11.51
2023-03-17T23:55:16.127Z,11.49
2023-03-17T23:57:44.632Z,11.47
